sensor_id;sensor_type;location;lat;lon;timestamp;temperature;humidity
12655;DHT22;6392;44.644;11.448;2023-03-04T00:00:04;7.70;99.90
12655;DHT22;6392;44.644;11.448;2023-03-04T00:02:31;7.70;99.90
12655;DHT22;6392;44.644;11.448;2023-03-04T00:04:58;7.70;99.90
12655;DHT22;6392;44.644;11.448;2023-03-04T00:07:25;7.70;99.90
12655;DHT22;6392;44.644;11.448;2023-03-04T00:09:52;7.70;99.90
12655;DHT22;6392;44.644;11.448;2023-03-04T00:12:19;7.70;99.90
12655;DHT22;6392;44.644;11.448;2023-03-04T00:14:47;7.70;99.90
12655;DHT22;6392;44.644;11.448;2023-03-04T00:17:14;7.60;99.90
12655;DHT22;6392;44.644;11.448;2023-03-04T00:19:41;7.40;99.90
12655;DHT22;6392;44.644;11.448;2023-03-04T00:22:08;7.30;99.90
12655;DHT22;6392;44.644;11.448;2023-03-04T00:24:35;7.20;99.90
12655;DHT22;6392;44.644;11.448;2023-03-04T00:27:02;7.10;99.90
12655;DHT22;6392;44.644;11.448;2023-03-04T00:29:29;7.10;99.90
12655;DHT22;6392;44.644;11.448;2023-03-04T00:31:58;7.10;99.90
12655;DHT22;6392;44.644;11.448;2023-03-04T00:34:25;7.10;99.90
12655;DHT22;6392;44.644;11.448;2023-03-04T00:36:52;7.00;99.90
12655;DHT22;6392;44.644;11.448;2023-03-04T00:39:19;7.00;99.90
12655;DHT22;6392;44.644;11.448;2023-03-04T00:41:46;6.90;99.90
12655;DHT22;6392;44.644;11.448;2023-03-04T00:44:13;6.90;99.90
12655;DHT22;6392;44.644;11.448;2023-03-04T00:46:40;6.90;99.90
12655;DHT22;6392;44.644;11.448;2023-03-04T00:49:08;7.00;99.90
12655;DHT22;6392;44.644;11.448;2023-03-04T00:51:35;7.00;99.90
12655;DHT22;6392;44.644;11.448;2023-03-04T00:54:03;7.00;99.90
12655;DHT22;6392;44.644;11.448;2023-03-04T00:56:30;7.00;99.90
12655;DHT22;6392;44.644;11.448;2023-03-04T00:58:57;6.90;99.90
12655;DHT22;6392;44.644;11.448;2023-03-04T01:01:24;6.90;99.90
12655;DHT22;6392;44.644;11.448;2023-03-04T01:03:51;6.90;99.90
12655;DHT22;6392;44.644;11.448;2023-03-04T01:06:19;6.90;99.90
12655;DHT22;6392;44.644;11.448;2023-03-04T01:08:46;6.90;99.90
12655;DHT22;6392;44.644;11.448;2023-03-04T01:11:13;6.80;99.90
12655;DHT22;6392;44.644;11.448;2023-03-04T01:13:40;6.80;99.90
12655;DHT22;6392;44.644;11.448;2023-03-04T01:16:07;6.80;99.90
12655;DHT22;6392;44.644;11.448;2023-03-04T01:18:35;6.80;99.90
12655;DHT22;6392;44.644;11.448;2023-03-04T01:21:03;6.70;99.90
12655;DHT22;6392;44.644;11.448;2023-03-04T01:23:31;6.60;99.90
12655;DHT22;6392;44.644;11.448;2023-03-04T01:25:58;6.50;99.90
12655;DHT22;6392;44.644;11.448;2023-03-04T01:28:25;6.50;99.90
12655;DHT22;6392;44.644;11.448;2023-03-04T01:30:52;6.40;99.90
12655;DHT22;6392;44.644;11.448;2023-03-04T01:33:19;6.30;99.90
12655;DHT22;6392;44.644;11.448;2023-03-04T01:35:46;6.30;99.90
12655;DHT22;6392;44.644;11.448;2023-03-04T01:38:13;6.30;99.90
12655;DHT22;6392;44.644;11.448;2023-03-04T01:40:42;6.20;99.90
12655;DHT22;6392;44.644;11.448;2023-03-04T01:43:22;6.10;99.90
12655;DHT22;6392;44.644;11.448;2023-03-04T01:45:51;6.10;99.90
12655;DHT22;6392;44.644;11.448;2023-03-04T01:48:22;6.00;99.90
12655;DHT22;6392;44.644;11.448;2023-03-04T01:50:50;6.10;99.90
12655;DHT22;6392;44.644;11.448;2023-03-04T01:53:20;6.10;99.90
12655;DHT22;6392;44.644;11.448;2023-03-04T01:55:51;6.10;99.90
12655;DHT22;6392;44.644;11.448;2023-03-04T01:58:18;6.10;99.90
12655;DHT22;6392;44.644;11.448;2023-03-04T02:00:46;6.10;99.90
12655;DHT22;6392;44.644;11.448;2023-03-04T02:03:15;6.10;99.90
12655;DHT22;6392;44.644;11.448;2023-03-04T02:05:46;6.10;99.90
12655;DHT22;6392;44.644;11.448;2023-03-04T02:08:14;6.10;99.90
12655;DHT22;6392;44.644;11.448;2023-03-04T02:10:42;6.00;99.90
12655;DHT22;6392;44.644;11.448;2023-03-04T02:13:12;6.00;99.90
12655;DHT22;6392;44.644;11.448;2023-03-04T02:15:39;6.00;99.90
12655;DHT22;6392;44.644;11.448;2023-03-04T02:18:14;6.00;99.90
12655;DHT22;6392;44.644;11.448;2023-03-04T02:20:47;6.00;99.90
12655;DHT22;6392;44.644;11.448;2023-03-04T02:23:20;6.10;99.90
12655;DHT22;6392;44.644;11.448;2023-03-04T02:28:26;6.10;99.90
12655;DHT22;6392;44.644;11.448;2023-03-04T02:30:53;6.10;99.90
12655;DHT22;6392;44.644;11.448;2023-03-04T02:33:20;6.00;99.90
12655;DHT22;6392;44.644;11.448;2023-03-04T02:35:47;6.10;99.90
12655;DHT22;6392;44.644;11.448;2023-03-04T02:38:15;6.10;99.90
12655;DHT22;6392;44.644;11.448;2023-03-04T02:40:46;6.20;99.90
12655;DHT22;6392;44.644;11.448;2023-03-04T02:43:14;6.20;99.90
12655;DHT22;6392;44.644;11.448;2023-03-04T02:45:45;6.20;99.90
12655;DHT22;6392;44.644;11.448;2023-03-04T02:48:15;6.20;99.90
12655;DHT22;6392;44.644;11.448;2023-03-04T02:50:44;6.20;99.90
12655;DHT22;6392;44.644;11.448;2023-03-04T02:53:11;6.20;99.90
12655;DHT22;6392;44.644;11.448;2023-03-04T02:55:39;6.10;99.90
12655;DHT22;6392;44.644;11.448;2023-03-04T02:58:08;6.10;99.90
12655;DHT22;6392;44.644;11.448;2023-03-04T03:00:35;6.10;99.90
12655;DHT22;6392;44.644;11.448;2023-03-04T03:03:04;6.00;99.90
12655;DHT22;6392;44.644;11.448;2023-03-04T03:05:32;6.10;99.90
12655;DHT22;6392;44.644;11.448;2023-03-04T03:07:59;6.10;99.90
12655;DHT22;6392;44.644;11.448;2023-03-04T03:10:26;6.10;99.90
12655;DHT22;6392;44.644;11.448;2023-03-04T03:12:53;6.00;99.90
12655;DHT22;6392;44.644;11.448;2023-03-04T03:15:21;5.90;99.90
12655;DHT22;6392;44.644;11.448;2023-03-04T03:17:48;5.90;99.90
12655;DHT22;6392;44.644;11.448;2023-03-04T03:20:17;5.80;99.90
12655;DHT22;6392;44.644;11.448;2023-03-04T03:22:44;5.90;99.90
12655;DHT22;6392;44.644;11.448;2023-03-04T03:25:12;5.90;99.90
12655;DHT22;6392;44.644;11.448;2023-03-04T03:27:40;6.00;99.90
12655;DHT22;6392;44.644;11.448;2023-03-04T03:30:09;6.00;99.90
12655;DHT22;6392;44.644;11.448;2023-03-04T03:32:36;6.10;99.90
12655;DHT22;6392;44.644;11.448;2023-03-04T03:35:04;6.10;99.90
12655;DHT22;6392;44.644;11.448;2023-03-04T03:37:33;6.20;99.90
12655;DHT22;6392;44.644;11.448;2023-03-04T03:40:00;6.20;99.90
12655;DHT22;6392;44.644;11.448;2023-03-04T03:42:27;6.20;99.90
12655;DHT22;6392;44.644;11.448;2023-03-04T03:44:54;6.20;99.90
12655;DHT22;6392;44.644;11.448;2023-03-04T03:47:21;6.20;99.90
12655;DHT22;6392;44.644;11.448;2023-03-04T03:49:48;6.30;99.90
12655;DHT22;6392;44.644;11.448;2023-03-04T03:52:15;6.30;99.90
12655;DHT22;6392;44.644;11.448;2023-03-04T03:54:43;6.40;99.90
12655;DHT22;6392;44.644;11.448;2023-03-04T03:57:10;6.30;99.90
12655;DHT22;6392;44.644;11.448;2023-03-04T03:59:37;6.30;99.90
12655;DHT22;6392;44.644;11.448;2023-03-04T04:02:04;6.30;99.90
12655;DHT22;6392;44.644;11.448;2023-03-04T04:04:31;6.30;99.90
12655;DHT22;6392;44.644;11.448;2023-03-04T04:06:58;6.20;99.90
12655;DHT22;6392;44.644;11.448;2023-03-04T04:09:25;6.20;99.90
12655;DHT22;6392;44.644;11.448;2023-03-04T04:11:54;6.20;99.90
12655;DHT22;6392;44.644;11.448;2023-03-04T04:14:22;6.20;99.90
12655;DHT22;6392;44.644;11.448;2023-03-04T04:16:49;6.20;99.90
12655;DHT22;6392;44.644;11.448;2023-03-04T04:19:17;6.20;99.90
12655;DHT22;6392;44.644;11.448;2023-03-04T04:21:44;6.20;99.90
12655;DHT22;6392;44.644;11.448;2023-03-04T04:24:11;6.10;99.90
12655;DHT22;6392;44.644;11.448;2023-03-04T04:26:38;6.10;99.90
12655;DHT22;6392;44.644;11.448;2023-03-04T04:29:07;6.10;99.90
12655;DHT22;6392;44.644;11.448;2023-03-04T04:31:34;6.10;99.90
12655;DHT22;6392;44.644;11.448;2023-03-04T04:34:01;6.10;99.90
12655;DHT22;6392;44.644;11.448;2023-03-04T04:36:28;6.10;99.90
12655;DHT22;6392;44.644;11.448;2023-03-04T04:38:55;6.10;99.90
12655;DHT22;6392;44.644;11.448;2023-03-04T04:41:25;6.10;99.90
12655;DHT22;6392;44.644;11.448;2023-03-04T04:43:52;6.10;99.90
12655;DHT22;6392;44.644;11.448;2023-03-04T04:46:21;6.10;99.90
12655;DHT22;6392;44.644;11.448;2023-03-04T04:48:48;6.10;99.90
12655;DHT22;6392;44.644;11.448;2023-03-04T04:51:15;6.10;99.90
12655;DHT22;6392;44.644;11.448;2023-03-04T04:53:42;6.10;99.90
12655;DHT22;6392;44.644;11.448;2023-03-04T04:56:10;6.20;99.90
12655;DHT22;6392;44.644;11.448;2023-03-04T04:58:37;6.20;99.90
12655;DHT22;6392;44.644;11.448;2023-03-04T05:01:05;6.20;99.90
12655;DHT22;6392;44.644;11.448;2023-03-04T05:03:34;6.20;99.90
12655;DHT22;6392;44.644;11.448;2023-03-04T05:06:03;6.20;99.90
12655;DHT22;6392;44.644;11.448;2023-03-04T05:08:30;6.20;99.90
12655;DHT22;6392;44.644;11.448;2023-03-04T05:10:57;6.10;99.90
12655;DHT22;6392;44.644;11.448;2023-03-04T05:13:25;6.00;99.90
12655;DHT22;6392;44.644;11.448;2023-03-04T05:15:53;5.90;99.90
12655;DHT22;6392;44.644;11.448;2023-03-04T05:18:20;5.80;99.90
12655;DHT22;6392;44.644;11.448;2023-03-04T05:20:51;5.80;99.90
12655;DHT22;6392;44.644;11.448;2023-03-04T05:23:18;5.70;99.90
12655;DHT22;6392;44.644;11.448;2023-03-04T05:25:45;5.60;99.90
12655;DHT22;6392;44.644;11.448;2023-03-04T05:28:13;5.60;99.90
12655;DHT22;6392;44.644;11.448;2023-03-04T05:30:40;5.50;99.90
12655;DHT22;6392;44.644;11.448;2023-03-04T05:33:09;5.40;99.90
12655;DHT22;6392;44.644;11.448;2023-03-04T05:35:37;5.30;99.90
12655;DHT22;6392;44.644;11.448;2023-03-04T05:38:08;5.30;99.90
12655;DHT22;6392;44.644;11.448;2023-03-04T05:40:36;5.20;99.90
12655;DHT22;6392;44.644;11.448;2023-03-04T05:43:03;5.20;99.90
12655;DHT22;6392;44.644;11.448;2023-03-04T05:45:30;5.20;99.90
12655;DHT22;6392;44.644;11.448;2023-03-04T05:47:58;5.20;99.90
12655;DHT22;6392;44.644;11.448;2023-03-04T05:50:25;5.20;99.90
12655;DHT22;6392;44.644;11.448;2023-03-04T05:52:52;5.20;99.90
12655;DHT22;6392;44.644;11.448;2023-03-04T05:55:20;5.30;99.90
12655;DHT22;6392;44.644;11.448;2023-03-04T05:57:47;5.30;99.90
12655;DHT22;6392;44.644;11.448;2023-03-04T06:00:15;5.30;99.90
12655;DHT22;6392;44.644;11.448;2023-03-04T06:02:43;5.30;99.90
12655;DHT22;6392;44.644;11.448;2023-03-04T06:05:11;5.30;99.90
12655;DHT22;6392;44.644;11.448;2023-03-04T06:07:38;5.30;99.90
12655;DHT22;6392;44.644;11.448;2023-03-04T06:10:06;5.30;99.90
12655;DHT22;6392;44.644;11.448;2023-03-04T06:12:35;5.40;99.90
12655;DHT22;6392;44.644;11.448;2023-03-04T06:15:02;5.40;99.90
12655;DHT22;6392;44.644;11.448;2023-03-04T06:17:30;5.40;99.90
12655;DHT22;6392;44.644;11.448;2023-03-04T06:19:57;5.40;99.90
12655;DHT22;6392;44.644;11.448;2023-03-04T06:22:24;5.40;99.90
12655;DHT22;6392;44.644;11.448;2023-03-04T06:24:51;5.50;99.90
12655;DHT22;6392;44.644;11.448;2023-03-04T06:27:18;5.50;99.90
12655;DHT22;6392;44.644;11.448;2023-03-04T06:29:47;5.50;99.90
12655;DHT22;6392;44.644;11.448;2023-03-04T06:32:14;5.50;99.90
12655;DHT22;6392;44.644;11.448;2023-03-04T06:34:41;5.60;99.90
12655;DHT22;6392;44.644;11.448;2023-03-04T06:37:08;5.60;99.90
12655;DHT22;6392;44.644;11.448;2023-03-04T06:39:35;5.60;99.90
12655;DHT22;6392;44.644;11.448;2023-03-04T06:42:02;5.70;99.90
12655;DHT22;6392;44.644;11.448;2023-03-04T06:44:29;5.70;99.90
12655;DHT22;6392;44.644;11.448;2023-03-04T06:46:57;5.70;99.90
12655;DHT22;6392;44.644;11.448;2023-03-04T06:49:24;5.70;99.90
12655;DHT22;6392;44.644;11.448;2023-03-04T06:51:51;5.70;99.90
12655;DHT22;6392;44.644;11.448;2023-03-04T06:54:19;5.70;99.90
12655;DHT22;6392;44.644;11.448;2023-03-04T06:56:46;5.70;99.90
12655;DHT22;6392;44.644;11.448;2023-03-04T06:59:13;5.80;99.90
12655;DHT22;6392;44.644;11.448;2023-03-04T07:01:40;5.80;99.90
12655;DHT22;6392;44.644;11.448;2023-03-04T07:04:08;5.90;99.90
12655;DHT22;6392;44.644;11.448;2023-03-04T07:06:35;5.90;99.90
12655;DHT22;6392;44.644;11.448;2023-03-04T07:09:02;6.00;99.90
12655;DHT22;6392;44.644;11.448;2023-03-04T07:11:29;6.00;99.90
12655;DHT22;6392;44.644;11.448;2023-03-04T07:13:56;6.00;99.90
12655;DHT22;6392;44.644;11.448;2023-03-04T07:16:23;6.10;99.90
12655;DHT22;6392;44.644;11.448;2023-03-04T07:18:50;6.10;99.90
12655;DHT22;6392;44.644;11.448;2023-03-04T07:21:19;6.20;99.90
12655;DHT22;6392;44.644;11.448;2023-03-04T07:23:46;6.30;99.90
12655;DHT22;6392;44.644;11.448;2023-03-04T07:26:13;6.30;99.90
12655;DHT22;6392;44.644;11.448;2023-03-04T07:28:40;6.40;99.90
12655;DHT22;6392;44.644;11.448;2023-03-04T07:31:10;6.40;99.90
12655;DHT22;6392;44.644;11.448;2023-03-04T07:33:37;6.50;99.90
12655;DHT22;6392;44.644;11.448;2023-03-04T07:36:04;6.60;99.90
12655;DHT22;6392;44.644;11.448;2023-03-04T07:38:33;6.60;99.90
12655;DHT22;6392;44.644;11.448;2023-03-04T07:41:00;6.70;99.90
12655;DHT22;6392;44.644;11.448;2023-03-04T07:43:27;6.80;99.90
12655;DHT22;6392;44.644;11.448;2023-03-04T07:45:58;6.80;99.90
12655;DHT22;6392;44.644;11.448;2023-03-04T07:48:26;6.90;99.90
12655;DHT22;6392;44.644;11.448;2023-03-04T07:51:07;6.90;99.90
12655;DHT22;6392;44.644;11.448;2023-03-04T07:53:37;6.80;99.90
12655;DHT22;6392;44.644;11.448;2023-03-04T07:56:06;6.80;99.90
12655;DHT22;6392;44.644;11.448;2023-03-04T07:58:33;6.80;99.90
12655;DHT22;6392;44.644;11.448;2023-03-04T08:01:00;6.90;99.90
12655;DHT22;6392;44.644;11.448;2023-03-04T08:03:27;6.90;99.90
12655;DHT22;6392;44.644;11.448;2023-03-04T08:05:55;6.90;99.90
12655;DHT22;6392;44.644;11.448;2023-03-04T08:08:22;6.90;99.90
12655;DHT22;6392;44.644;11.448;2023-03-04T08:10:50;6.90;99.90
12655;DHT22;6392;44.644;11.448;2023-03-04T08:13:17;6.90;99.90
12655;DHT22;6392;44.644;11.448;2023-03-04T08:15:44;6.90;99.90
12655;DHT22;6392;44.644;11.448;2023-03-04T08:18:12;6.90;99.90
12655;DHT22;6392;44.644;11.448;2023-03-04T08:20:40;7.00;99.90
12655;DHT22;6392;44.644;11.448;2023-03-04T08:23:08;7.10;99.90
12655;DHT22;6392;44.644;11.448;2023-03-04T08:25:38;7.20;99.90
12655;DHT22;6392;44.644;11.448;2023-03-04T08:28:07;7.30;99.90
12655;DHT22;6392;44.644;11.448;2023-03-04T08:30:34;7.40;99.90
12655;DHT22;6392;44.644;11.448;2023-03-04T08:33:02;7.50;99.90
12655;DHT22;6392;44.644;11.448;2023-03-04T08:35:29;7.50;99.90
12655;DHT22;6392;44.644;11.448;2023-03-04T08:37:57;7.60;99.90
12655;DHT22;6392;44.644;11.448;2023-03-04T08:40:24;7.70;99.90
12655;DHT22;6392;44.644;11.448;2023-03-04T08:42:52;7.80;99.90
12655;DHT22;6392;44.644;11.448;2023-03-04T08:45:20;7.90;99.90
12655;DHT22;6392;44.644;11.448;2023-03-04T08:47:47;8.00;99.90
12655;DHT22;6392;44.644;11.448;2023-03-04T08:50:15;8.10;99.90
12655;DHT22;6392;44.644;11.448;2023-03-04T08:52:42;8.10;99.90
12655;DHT22;6392;44.644;11.448;2023-03-04T08:55:09;8.20;99.90
12655;DHT22;6392;44.644;11.448;2023-03-04T08:57:36;8.30;99.90
12655;DHT22;6392;44.644;11.448;2023-03-04T09:00:04;8.40;99.90
12655;DHT22;6392;44.644;11.448;2023-03-04T09:02:33;8.50;99.90
12655;DHT22;6392;44.644;11.448;2023-03-04T09:05:00;8.50;99.90
12655;DHT22;6392;44.644;11.448;2023-03-04T09:07:27;8.60;99.90
12655;DHT22;6392;44.644;11.448;2023-03-04T09:09:54;8.60;99.90
12655;DHT22;6392;44.644;11.448;2023-03-04T09:12:21;8.60;99.90
12655;DHT22;6392;44.644;11.448;2023-03-04T09:14:48;8.70;99.90
12655;DHT22;6392;44.644;11.448;2023-03-04T09:17:15;8.70;99.90
12655;DHT22;6392;44.644;11.448;2023-03-04T09:19:44;8.80;99.90
12655;DHT22;6392;44.644;11.448;2023-03-04T09:22:11;8.90;99.90
12655;DHT22;6392;44.644;11.448;2023-03-04T09:24:38;9.00;99.90
12655;DHT22;6392;44.644;11.448;2023-03-04T09:27:05;9.00;99.90
12655;DHT22;6392;44.644;11.448;2023-03-04T09:29:32;9.10;99.90
12655;DHT22;6392;44.644;11.448;2023-03-04T09:31:59;9.20;99.90
12655;DHT22;6392;44.644;11.448;2023-03-04T09:34:26;9.30;99.90
12655;DHT22;6392;44.644;11.448;2023-03-04T09:36:54;9.30;99.90
12655;DHT22;6392;44.644;11.448;2023-03-04T09:39:21;9.40;99.90
12655;DHT22;6392;44.644;11.448;2023-03-04T09:41:50;9.40;99.90
12655;DHT22;6392;44.644;11.448;2023-03-04T09:44:23;9.50;99.90
12655;DHT22;6392;44.644;11.448;2023-03-04T09:46:52;9.60;99.90
12655;DHT22;6392;44.644;11.448;2023-03-04T09:49:21;9.60;99.90
12655;DHT22;6392;44.644;11.448;2023-03-04T09:51:58;9.60;99.90
12655;DHT22;6392;44.644;11.448;2023-03-04T09:54:41;9.70;99.90
12655;DHT22;6392;44.644;11.448;2023-03-04T09:57:24;9.70;99.90
12655;DHT22;6392;44.644;11.448;2023-03-04T10:00:04;9.70;99.90
12655;DHT22;6392;44.644;11.448;2023-03-04T10:02:43;9.80;99.90
12655;DHT22;6392;44.644;11.448;2023-03-04T10:05:16;9.90;99.90
12655;DHT22;6392;44.644;11.448;2023-03-04T10:07:49;9.90;99.90
12655;DHT22;6392;44.644;11.448;2023-03-04T10:10:23;9.90;99.90
12655;DHT22;6392;44.644;11.448;2023-03-04T10:12:52;10.00;99.90
12655;DHT22;6392;44.644;11.448;2023-03-04T10:15:30;10.00;99.90
12655;DHT22;6392;44.644;11.448;2023-03-04T10:18:03;10.10;99.90
12655;DHT22;6392;44.644;11.448;2023-03-04T10:20:45;10.10;99.90
12655;DHT22;6392;44.644;11.448;2023-03-04T10:23:18;10.30;99.90
12655;DHT22;6392;44.644;11.448;2023-03-04T10:25:47;10.30;99.90
12655;DHT22;6392;44.644;11.448;2023-03-04T10:28:20;10.30;99.90
12655;DHT22;6392;44.644;11.448;2023-03-04T10:30:54;10.40;99.90
12655;DHT22;6392;44.644;11.448;2023-03-04T10:33:26;10.50;99.90
12655;DHT22;6392;44.644;11.448;2023-03-04T10:36:00;10.60;99.90
12655;DHT22;6392;44.644;11.448;2023-03-04T10:38:31;10.60;99.90
12655;DHT22;6392;44.644;11.448;2023-03-04T10:40:59;10.70;99.90
12655;DHT22;6392;44.644;11.448;2023-03-04T10:43:27;10.70;99.90
12655;DHT22;6392;44.644;11.448;2023-03-04T10:45:55;10.70;99.90
12655;DHT22;6392;44.644;11.448;2023-03-04T10:48:25;10.70;99.90
12655;DHT22;6392;44.644;11.448;2023-03-04T10:50:54;10.80;99.90
12655;DHT22;6392;44.644;11.448;2023-03-04T10:53:39;10.90;99.90
12655;DHT22;6392;44.644;11.448;2023-03-04T10:56:32;10.90;99.90
12655;DHT22;6392;44.644;11.448;2023-03-04T10:59:30;11.00;99.90
12655;DHT22;6392;44.644;11.448;2023-03-04T11:01:59;11.00;99.90
12655;DHT22;6392;44.644;11.448;2023-03-04T11:04:32;11.10;99.90
12655;DHT22;6392;44.644;11.448;2023-03-04T11:06:59;11.20;99.90
12655;DHT22;6392;44.644;11.448;2023-03-04T11:09:29;11.20;99.90
12655;DHT22;6392;44.644;11.448;2023-03-04T11:11:59;11.20;99.90
12655;DHT22;6392;44.644;11.448;2023-03-04T11:14:34;11.30;99.90
12655;DHT22;6392;44.644;11.448;2023-03-04T11:17:14;11.30;99.90
12655;DHT22;6392;44.644;11.448;2023-03-04T11:19:44;11.40;99.90
12655;DHT22;6392;44.644;11.448;2023-03-04T11:22:15;11.40;99.90
12655;DHT22;6392;44.644;11.448;2023-03-04T11:24:47;11.50;99.90
12655;DHT22;6392;44.644;11.448;2023-03-04T11:27:21;11.60;99.90
12655;DHT22;6392;44.644;11.448;2023-03-04T11:29:52;11.60;99.90
12655;DHT22;6392;44.644;11.448;2023-03-04T11:32:23;11.70;99.90
12655;DHT22;6392;44.644;11.448;2023-03-04T11:34:55;11.70;99.90
12655;DHT22;6392;44.644;11.448;2023-03-04T11:37:29;11.80;99.90
12655;DHT22;6392;44.644;11.448;2023-03-04T11:40:03;11.80;99.90
12655;DHT22;6392;44.644;11.448;2023-03-04T11:42:34;12.00;99.90
12655;DHT22;6392;44.644;11.448;2023-03-04T11:45:04;12.00;99.90
12655;DHT22;6392;44.644;11.448;2023-03-04T11:47:54;12.00;99.90
12655;DHT22;6392;44.644;11.448;2023-03-04T11:50:30;12.10;99.90
12655;DHT22;6392;44.644;11.448;2023-03-04T11:53:19;12.10;99.90
12655;DHT22;6392;44.644;11.448;2023-03-04T11:55:57;12.20;99.90
12655;DHT22;6392;44.644;11.448;2023-03-04T12:01:35;12.30;99.90
12655;DHT22;6392;44.644;11.448;2023-03-04T12:07:20;12.60;99.90
12655;DHT22;6392;44.644;11.448;2023-03-04T12:09:56;12.60;99.90
12655;DHT22;6392;44.644;11.448;2023-03-04T12:12:41;12.70;99.90
12655;DHT22;6392;44.644;11.448;2023-03-04T12:15:18;12.70;99.90
12655;DHT22;6392;44.644;11.448;2023-03-04T12:18:10;12.70;99.90
12655;DHT22;6392;44.644;11.448;2023-03-04T12:20:49;12.70;99.90
12655;DHT22;6392;44.644;11.448;2023-03-04T12:23:45;12.80;99.90
12655;DHT22;6392;44.644;11.448;2023-03-04T12:26:24;12.90;99.90
12655;DHT22;6392;44.644;11.448;2023-03-04T12:29:03;13.00;99.90
12655;DHT22;6392;44.644;11.448;2023-03-04T12:31:36;13.10;99.90
12655;DHT22;6392;44.644;11.448;2023-03-04T12:37:44;13.30;99.90
12655;DHT22;6392;44.644;11.448;2023-03-04T12:40:26;13.40;99.90
12655;DHT22;6392;44.644;11.448;2023-03-04T12:46:10;13.70;99.90
12655;DHT22;6392;44.644;11.448;2023-03-04T12:48:40;13.90;99.90
12655;DHT22;6392;44.644;11.448;2023-03-04T12:51:19;14.00;99.90
12655;DHT22;6392;44.644;11.448;2023-03-04T12:53:58;14.00;99.90
12655;DHT22;6392;44.644;11.448;2023-03-04T12:56:35;14.20;99.90
12655;DHT22;6392;44.644;11.448;2023-03-04T12:59:03;14.30;99.90
12655;DHT22;6392;44.644;11.448;2023-03-04T13:01:35;14.40;99.90
12655;DHT22;6392;44.644;11.448;2023-03-04T13:04:11;14.60;99.90
12655;DHT22;6392;44.644;11.448;2023-03-04T13:06:45;14.70;99.90
12655;DHT22;6392;44.644;11.448;2023-03-04T13:09:19;14.90;99.90
12655;DHT22;6392;44.644;11.448;2023-03-04T13:11:53;15.00;99.90
12655;DHT22;6392;44.644;11.448;2023-03-04T13:14:27;15.10;99.90
12655;DHT22;6392;44.644;11.448;2023-03-04T13:16:56;15.30;99.90
12655;DHT22;6392;44.644;11.448;2023-03-04T13:19:55;15.40;99.90
12655;DHT22;6392;44.644;11.448;2023-03-04T13:22:33;15.50;99.90
12655;DHT22;6392;44.644;11.448;2023-03-04T13:25:32;15.60;99.90
12655;DHT22;6392;44.644;11.448;2023-03-04T13:28:22;15.60;99.90
12655;DHT22;6392;44.644;11.448;2023-03-04T13:31:20;15.90;99.90
12655;DHT22;6392;44.644;11.448;2023-03-04T13:33:56;16.00;99.90
12655;DHT22;6392;44.644;11.448;2023-03-04T13:39:28;16.00;99.90
12655;DHT22;6392;44.644;11.448;2023-03-04T13:41:56;16.00;99.90
12655;DHT22;6392;44.644;11.448;2023-03-04T13:47:19;16.10;99.90
12655;DHT22;6392;44.644;11.448;2023-03-04T13:49:47;16.10;99.90
12655;DHT22;6392;44.644;11.448;2023-03-04T13:52:38;16.20;99.90
12655;DHT22;6392;44.644;11.448;2023-03-04T13:55:32;16.40;99.90
12655;DHT22;6392;44.644;11.448;2023-03-04T13:58:00;16.60;99.90
12655;DHT22;6392;44.644;11.448;2023-03-04T14:00:27;16.70;99.90
12655;DHT22;6392;44.644;11.448;2023-03-04T14:02:55;16.70;99.90
12655;DHT22;6392;44.644;11.448;2023-03-04T14:05:23;16.60;99.90
12655;DHT22;6392;44.644;11.448;2023-03-04T14:07:50;16.60;99.90
12655;DHT22;6392;44.644;11.448;2023-03-04T14:10:23;16.60;99.90
12655;DHT22;6392;44.644;11.448;2023-03-04T14:12:52;16.60;99.90
12655;DHT22;6392;44.644;11.448;2023-03-04T14:15:22;16.70;99.90
12655;DHT22;6392;44.644;11.448;2023-03-04T14:17:52;16.90;99.90
12655;DHT22;6392;44.644;11.448;2023-03-04T14:20:31;17.20;99.90
12655;DHT22;6392;44.644;11.448;2023-03-04T14:23:00;17.40;99.90
12655;DHT22;6392;44.644;11.448;2023-03-04T14:25:28;17.50;99.90
12655;DHT22;6392;44.644;11.448;2023-03-04T14:28:03;17.50;99.90
12655;DHT22;6392;44.644;11.448;2023-03-04T14:30:31;17.50;99.90
12655;DHT22;6392;44.644;11.448;2023-03-04T14:32:59;17.50;99.90
12655;DHT22;6392;44.644;11.448;2023-03-04T14:35:27;17.50;99.90
12655;DHT22;6392;44.644;11.448;2023-03-04T14:37:59;17.50;99.90
12655;DHT22;6392;44.644;11.448;2023-03-04T14:40:29;17.50;99.90
12655;DHT22;6392;44.644;11.448;2023-03-04T14:43:00;17.60;99.90
12655;DHT22;6392;44.644;11.448;2023-03-04T14:45:29;17.60;99.90
12655;DHT22;6392;44.644;11.448;2023-03-04T14:48:00;17.50;99.90
12655;DHT22;6392;44.644;11.448;2023-03-04T14:50:28;17.50;99.90
12655;DHT22;6392;44.644;11.448;2023-03-04T14:53:21;17.50;99.90
12655;DHT22;6392;44.644;11.448;2023-03-04T14:55:57;17.50;99.90
12655;DHT22;6392;44.644;11.448;2023-03-04T14:58:26;17.50;99.90
12655;DHT22;6392;44.644;11.448;2023-03-04T15:01:12;17.50;99.90
12655;DHT22;6392;44.644;11.448;2023-03-04T15:03:41;17.50;99.90
12655;DHT22;6392;44.644;11.448;2023-03-04T15:06:15;17.40;99.90
12655;DHT22;6392;44.644;11.448;2023-03-04T15:08:45;17.30;99.90
12655;DHT22;6392;44.644;11.448;2023-03-04T15:11:20;17.30;99.90
12655;DHT22;6392;44.644;11.448;2023-03-04T15:13:50;17.30;99.90
12655;DHT22;6392;44.644;11.448;2023-03-04T15:16:19;17.40;99.90
12655;DHT22;6392;44.644;11.448;2023-03-04T15:18:56;17.50;99.90
12655;DHT22;6392;44.644;11.448;2023-03-04T15:21:34;17.60;99.90
12655;DHT22;6392;44.644;11.448;2023-03-04T15:24:03;17.60;99.90
12655;DHT22;6392;44.644;11.448;2023-03-04T15:26:32;17.70;99.90
12655;DHT22;6392;44.644;11.448;2023-03-04T15:28:59;17.70;99.90
12655;DHT22;6392;44.644;11.448;2023-03-04T15:31:29;17.60;99.90
12655;DHT22;6392;44.644;11.448;2023-03-04T15:33:56;17.60;99.90
12655;DHT22;6392;44.644;11.448;2023-03-04T15:36:23;17.70;99.90
12655;DHT22;6392;44.644;11.448;2023-03-04T15:38:51;17.70;99.90
12655;DHT22;6392;44.644;11.448;2023-03-04T15:41:23;17.70;99.90
12655;DHT22;6392;44.644;11.448;2023-03-04T15:43:51;17.60;99.90
12655;DHT22;6392;44.644;11.448;2023-03-04T15:46:19;17.60;99.90
12655;DHT22;6392;44.644;11.448;2023-03-04T15:48:48;17.70;99.90
12655;DHT22;6392;44.644;11.448;2023-03-04T15:51:19;17.70;99.90
12655;DHT22;6392;44.644;11.448;2023-03-04T15:53:49;17.70;99.90
12655;DHT22;6392;44.644;11.448;2023-03-04T15:56:18;17.80;99.90
12655;DHT22;6392;44.644;11.448;2023-03-04T15:58:51;17.70;99.90
12655;DHT22;6392;44.644;11.448;2023-03-04T16:01:19;17.60;99.90
12655;DHT22;6392;44.644;11.448;2023-03-04T16:03:47;17.40;99.90
12655;DHT22;6392;44.644;11.448;2023-03-04T16:06:15;17.20;99.90
12655;DHT22;6392;44.644;11.448;2023-03-04T16:08:43;17.00;99.90
12655;DHT22;6392;44.644;11.448;2023-03-04T16:11:14;16.80;99.90
12655;DHT22;6392;44.644;11.448;2023-03-04T16:13:42;16.70;99.90
12655;DHT22;6392;44.644;11.448;2023-03-04T16:16:11;16.50;99.90
12655;DHT22;6392;44.644;11.448;2023-03-04T16:18:39;16.40;99.90